sensor_id;sensor_type;location;lat;lon;timestamp;pressure;altitude;pressure_sealevel;temperature;humidity
48563;BME280;34981;49.104;11.396;2023-04-07T00:01:43;95737.81;;;2.00;100.00
48563;BME280;34981;49.104;11.396;2023-04-07T00:04:11;95728.81;;;2.01;100.00
48563;BME280;34981;49.104;11.396;2023-04-07T00:06:38;95720.72;;;1.95;100.00
48563;BME280;34981;49.104;11.396;2023-04-07T00:09:06;95718.09;;;1.95;100.00
48563;BME280;34981;49.104;11.396;2023-04-07T00:11:33;95718.50;;;1.92;100.00
48563;BME280;34981;49.104;11.396;2023-04-07T00:14:00;95725.44;;;1.75;100.00
48563;BME280;34981;49.104;11.396;2023-04-07T00:16:27;95728.13;;;1.69;100.00
48563;BME280;34981;49.104;11.396;2023-04-07T00:18:54;95727.56;;;1.67;100.00
48563;BME280;34981;49.104;11.396;2023-04-07T00:21:21;95723.72;;;1.63;100.00
48563;BME280;34981;49.104;11.396;2023-04-07T00:23:48;95732.06;;;1.66;100.00
48563;BME280;34981;49.104;11.396;2023-04-07T00:26:15;95721.81;;;1.70;100.00
48563;BME280;34981;49.104;11.396;2023-04-07T00:28:43;95726.09;;;1.71;100.00
48563;BME280;34981;49.104;11.396;2023-04-07T00:31:10;95717.19;;;1.65;100.00
48563;BME280;34981;49.104;11.396;2023-04-07T00:33:39;95719.03;;;1.65;100.00
48563;BME280;34981;49.104;11.396;2023-04-07T00:36:06;95722.28;;;1.67;100.00
48563;BME280;34981;49.104;11.396;2023-04-07T00:38:33;95719.03;;;1.65;100.00
48563;BME280;34981;49.104;11.396;2023-04-07T00:41:00;95717.78;;;1.67;100.00
48563;BME280;34981;49.104;11.396;2023-04-07T00:43:27;95709.84;;;1.67;100.00
48563;BME280;34981;49.104;11.396;2023-04-07T00:45:55;95710.84;;;1.66;100.00
48563;BME280;34981;49.104;11.396;2023-04-07T00:48:22;95710.03;;;1.66;100.00
48563;BME280;34981;49.104;11.396;2023-04-07T00:50:50;95705.38;;;1.61;100.00
48563;BME280;34981;49.104;11.396;2023-04-07T00:53:17;95702.69;;;1.68;100.00
48563;BME280;34981;49.104;11.396;2023-04-07T00:55:45;95696.66;;;1.61;100.00
48563;BME280;34981;49.104;11.396;2023-04-07T00:58:12;95696.34;;;1.69;100.00
48563;BME280;34981;49.104;11.396;2023-04-07T01:00:47;95690.75;;;1.77;100.00
48563;BME280;34981;49.104;11.396;2023-04-07T01:03:28;95687.66;;;1.80;100.00
48563;BME280;34981;49.104;11.396;2023-04-07T01:05:59;95688.41;;;1.69;100.00
48563;BME280;34981;49.104;11.396;2023-04-07T01:11:05;95675.47;;;1.61;100.00
48563;BME280;34981;49.104;11.396;2023-04-07T01:13:42;95680.09;;;1.65;100.00
48563;BME280;34981;49.104;11.396;2023-04-07T01:16:23;95673.38;;;1.63;100.00
48563;BME280;34981;49.104;11.396;2023-04-07T01:18:53;95668.28;;;1.61;100.00
48563;BME280;34981;49.104;11.396;2023-04-07T01:21:21;95667.50;;;1.61;100.00
48563;BME280;34981;49.104;11.396;2023-04-07T01:24:08;95666.91;;;1.59;100.00
48563;BME280;34981;49.104;11.396;2023-04-07T01:26:42;95659.03;;;1.52;100.00
48563;BME280;34981;49.104;11.396;2023-04-07T01:31:38;95650.38;;;1.45;100.00
48563;BME280;34981;49.104;11.396;2023-04-07T01:34:09;95656.00;;;1.48;100.00
48563;BME280;34981;49.104;11.396;2023-04-07T01:36:37;95653.56;;;1.47;100.00
48563;BME280;34981;49.104;11.396;2023-04-07T01:39:07;95647.47;;;1.46;100.00
48563;BME280;34981;49.104;11.396;2023-04-07T01:41:35;95642.16;;;1.46;100.00
48563;BME280;34981;49.104;11.396;2023-04-07T01:44:03;95635.47;;;1.26;100.00
48563;BME280;34981;49.104;11.396;2023-04-07T01:46:32;95641.38;;;1.28;100.00
48563;BME280;34981;49.104;11.396;2023-04-07T01:48:59;95632.03;;;1.43;100.00
48563;BME280;34981;49.104;11.396;2023-04-07T01:51:27;95630.34;;;1.49;100.00
48563;BME280;34981;49.104;11.396;2023-04-07T01:53:57;95629.09;;;1.51;100.00
48563;BME280;34981;49.104;11.396;2023-04-07T01:56:24;95630.56;;;1.47;100.00
48563;BME280;34981;49.104;11.396;2023-04-07T01:58:53;95629.00;;;1.40;100.00
48563;BME280;34981;49.104;11.396;2023-04-07T02:01:22;95621.88;;;1.40;100.00
48563;BME280;34981;49.104;11.396;2023-04-07T02:06:18;95615.69;;;1.46;100.00
48563;BME280;34981;49.104;11.396;2023-04-07T02:08:49;95618.94;;;1.48;100.00
48563;BME280;34981;49.104;11.396;2023-04-07T02:11:19;95615.75;;;1.40;100.00
48563;BME280;34981;49.104;11.396;2023-04-07T02:13:51;95621.88;;;1.40;100.00
48563;BME280;34981;49.104;11.396;2023-04-07T02:16:20;95617.16;;;1.42;100.00
48563;BME280;34981;49.104;11.396;2023-04-07T02:18:48;95616.00;;;1.38;100.00
48563;BME280;34981;49.104;11.396;2023-04-07T02:21:16;95614.28;;;1.26;100.00
48563;BME280;34981;49.104;11.396;2023-04-07T02:23:45;95615.09;;;1.26;100.00
48563;BME280;34981;49.104;11.396;2023-04-07T02:26:12;95615.84;;;1.33;100.00
48563;BME280;34981;49.104;11.396;2023-04-07T02:28:39;95606.88;;;1.34;100.00
48563;BME280;34981;49.104;11.396;2023-04-07T02:31:06;95600.41;;;1.30;100.00
48563;BME280;34981;49.104;11.396;2023-04-07T02:33:33;95609.09;;;1.37;100.00
48563;BME280;34981;49.104;11.396;2023-04-07T02:36:01;95602.03;;;1.31;100.00
48563;BME280;34981;49.104;11.396;2023-04-07T02:38:28;95602.03;;;1.31;100.00
48563;BME280;34981;49.104;11.396;2023-04-07T02:40:56;95604.69;;;1.31;100.00
48563;BME280;34981;49.104;11.396;2023-04-07T02:43:24;95606.13;;;1.27;100.00
48563;BME280;34981;49.104;11.396;2023-04-07T02:45:52;95596.63;;;1.20;100.00
48563;BME280;34981;49.104;11.396;2023-04-07T02:48:19;95592.38;;;1.18;100.00
48563;BME280;34981;49.104;11.396;2023-04-07T02:50:46;95598.47;;;1.01;100.00
48563;BME280;34981;49.104;11.396;2023-04-07T02:53:13;95596.72;;;1.13;100.00
48563;BME280;34981;49.104;11.396;2023-04-07T02:55:40;95589.94;;;1.17;100.00
48563;BME280;34981;49.104;11.396;2023-04-07T02:58:08;95587.59;;;1.09;100.00
48563;BME280;34981;49.104;11.396;2023-04-07T03:00:39;95585.91;;;1.14;100.00
48563;BME280;34981;49.104;11.396;2023-04-07T03:03:10;95584.50;;;1.12;100.00
48563;BME280;34981;49.104;11.396;2023-04-07T03:05:40;95592.59;;;1.17;100.00
48563;BME280;34981;49.104;11.396;2023-04-07T03:08:09;95582.22;;;1.15;100.00
48563;BME280;34981;49.104;11.396;2023-04-07T03:10:39;95580.97;;;1.18;100.00
48563;BME280;34981;49.104;11.396;2023-04-07T03:13:07;95589.38;;;1.15;100.00
48563;BME280;34981;49.104;11.396;2023-04-07T03:15:35;95580.59;;;1.14;100.00
48563;BME280;34981;49.104;11.396;2023-04-07T03:18:02;95584.44;;;1.18;100.00
48563;BME280;34981;49.104;11.396;2023-04-07T03:20:30;95578.50;;;1.23;100.00
48563;BME280;34981;49.104;11.396;2023-04-07T03:23:03;95586.72;;;1.15;100.00
48563;BME280;34981;49.104;11.396;2023-04-07T03:25:30;95582.72;;;1.06;100.00
48563;BME280;34981;49.104;11.396;2023-04-07T03:27:59;95580.47;;;1.09;100.00
48563;BME280;34981;49.104;11.396;2023-04-07T03:30:32;95580.69;;;1.08;100.00
48563;BME280;34981;49.104;11.396;2023-04-07T03:32:59;95588.25;;;1.04;100.00
48563;BME280;34981;49.104;11.396;2023-04-07T03:35:27;95589.84;;;1.05;100.00
48563;BME280;34981;49.104;11.396;2023-04-07T03:37:54;95586.41;;;1.05;100.00
48563;BME280;34981;49.104;11.396;2023-04-07T03:40:21;95577.22;;;1.07;100.00
48563;BME280;34981;49.104;11.396;2023-04-07T03:42:48;95578.47;;;1.05;100.00
48563;BME280;34981;49.104;11.396;2023-04-07T03:45:16;95577.13;;;0.96;100.00
48563;BME280;34981;49.104;11.396;2023-04-07T03:47:48;95573.31;;;0.92;100.00
48563;BME280;34981;49.104;11.396;2023-04-07T03:50:16;95573.91;;;0.94;100.00
48563;BME280;34981;49.104;11.396;2023-04-07T03:52:53;95574.25;;;0.97;100.00
48563;BME280;34981;49.104;11.396;2023-04-07T03:55:26;95573.91;;;0.94;100.00
48563;BME280;34981;49.104;11.396;2023-04-07T03:57:58;95569.84;;;0.91;100.00
48563;BME280;34981;49.104;11.396;2023-04-07T04:00:29;95574.53;;;0.89;100.00
48563;BME280;34981;49.104;11.396;2023-04-07T04:03:16;95571.69;;;0.91;100.00
48563;BME280;34981;49.104;11.396;2023-04-07T04:05:55;95573.53;;;0.90;100.00
48563;BME280;34981;49.104;11.396;2023-04-07T04:08:27;95572.88;;;0.95;100.00
48563;BME280;34981;49.104;11.396;2023-04-07T04:10:54;95569.84;;;0.91;100.00
48563;BME280;34981;49.104;11.396;2023-04-07T04:13:24;95568.63;;;0.94;100.00
48563;BME280;34981;49.104;11.396;2023-04-07T04:15:54;95567.28;;;0.85;100.00
48563;BME280;34981;49.104;11.396;2023-04-07T04:18:22;95565.03;;;0.82;100.00
48563;BME280;34981;49.104;11.396;2023-04-07T04:20:49;95554.03;;;0.85;100.00
48563;BME280;34981;49.104;11.396;2023-04-07T04:23:17;95560.97;;;0.86;100.00
48563;BME280;34981;49.104;11.396;2023-04-07T04:25:44;95556.91;;;0.83;100.00
48563;BME280;34981;49.104;11.396;2023-04-07T04:28:12;95558.13;;;0.81;100.00
48563;BME280;34981;49.104;11.396;2023-04-07T04:30:40;95555.50;;;0.81;100.00
48563;BME280;34981;49.104;11.396;2023-04-07T04:33:07;95549.25;;;0.75;100.00
48563;BME280;34981;49.104;11.396;2023-04-07T04:35:40;95552.84;;;0.81;100.00
48563;BME280;34981;49.104;11.396;2023-04-07T04:38:11;95549.19;;;0.82;100.00
48563;BME280;34981;49.104;11.396;2023-04-07T04:40:45;95554.31;;;0.76;100.00
48563;BME280;34981;49.104;11.396;2023-04-07T04:43:14;95551.25;;;0.80;100.00
48563;BME280;34981;49.104;11.396;2023-04-07T04:45:42;95545.50;;;0.83;100.00
48563;BME280;34981;49.104;11.396;2023-04-07T04:48:12;95551.19;;;0.86;100.00
48563;BME280;34981;49.104;11.396;2023-04-07T04:50:39;95549.97;;;0.82;100.00
48563;BME280;34981;49.104;11.396;2023-04-07T04:53:10;95549.91;;;0.89;100.00
48563;BME280;34981;49.104;11.396;2023-04-07T04:55:45;95548.75;;;0.85;100.00
48563;BME280;34981;49.104;11.396;2023-04-07T04:58:21;95546.25;;;0.90;100.00
48563;BME280;34981;49.104;11.396;2023-04-07T05:00:58;95546.84;;;0.92;100.00
48563;BME280;34981;49.104;11.396;2023-04-07T05:03:36;95545.69;;;1.06;100.00
48563;BME280;34981;49.104;11.396;2023-04-07T05:06:10;95548.38;;;1.17;100.00
48563;BME280;34981;49.104;11.396;2023-04-07T05:08:40;95553.97;;;1.28;100.00
48563;BME280;34981;49.104;11.396;2023-04-07T05:11:07;95550.81;;;1.37;100.00
48563;BME280;34981;49.104;11.396;2023-04-07T05:13:35;95556.84;;;1.44;100.00
48563;BME280;34981;49.104;11.396;2023-04-07T05:16:03;95551.97;;;1.60;100.00
48563;BME280;34981;49.104;11.396;2023-04-07T05:18:31;95547.31;;;1.73;100.00
48563;BME280;34981;49.104;11.396;2023-04-07T05:20:59;95554.97;;;1.81;100.00
48563;BME280;34981;49.104;11.396;2023-04-07T05:23:28;95552.25;;;2.00;100.00
48563;BME280;34981;49.104;11.396;2023-04-07T05:25:56;95556.53;;;2.12;100.00
48563;BME280;34981;49.104;11.396;2023-04-07T05:28:23;95549.28;;;2.19;100.00
48563;BME280;34981;49.104;11.396;2023-04-07T05:30:55;95553.72;;;2.49;100.00
48563;BME280;34981;49.104;11.396;2023-04-07T05:33:27;95548.34;;;2.79;100.00
48563;BME280;34981;49.104;11.396;2023-04-07T05:35:54;95549.72;;;3.04;100.00
48563;BME280;34981;49.104;11.396;2023-04-07T05:38:21;95553.13;;;3.40;100.00
48563;BME280;34981;49.104;11.396;2023-04-07T05:40:50;95544.66;;;3.55;100.00
48563;BME280;34981;49.104;11.396;2023-04-07T05:43:28;95543.50;;;3.90;100.00
48563;BME280;34981;49.104;11.396;2023-04-07T05:45:55;95545.63;;;4.05;100.00
48563;BME280;34981;49.104;11.396;2023-04-07T05:48:23;95544.25;;;4.48;100.00
48563;BME280;34981;49.104;11.396;2023-04-07T05:50:53;95542.97;;;4.50;100.00
48563;BME280;34981;49.104;11.396;2023-04-07T05:53:21;95559.06;;;4.60;100.00
48563;BME280;34981;49.104;11.396;2023-04-07T05:55:48;95548.91;;;5.07;100.00
48563;BME280;34981;49.104;11.396;2023-04-07T05:58:35;95554.69;;;5.21;100.00
48563;BME280;34981;49.104;11.396;2023-04-07T06:01:03;95558.31;;;5.54;100.00
48563;BME280;34981;49.104;11.396;2023-04-07T06:03:30;95560.38;;;5.68;100.00
48563;BME280;34981;49.104;11.396;2023-04-07T06:06:10;95549.69;;;5.08;100.00
48563;BME280;34981;49.104;11.396;2023-04-07T06:08:37;95556.34;;;5.88;100.00
48563;BME280;34981;49.104;11.396;2023-04-07T06:11:04;95558.81;;;5.94;100.00
48563;BME280;34981;49.104;11.396;2023-04-07T06:13:33;95557.72;;;5.90;100.00
48563;BME280;34981;49.104;11.396;2023-04-07T06:16:00;95558.69;;;5.62;100.00
48563;BME280;34981;49.104;11.396;2023-04-07T06:18:27;95562.59;;;5.76;100.00
48563;BME280;34981;49.104;11.396;2023-04-07T06:20:54;95555.44;;;5.99;100.00
48563;BME280;34981;49.104;11.396;2023-04-07T06:23:21;95560.28;;;5.85;100.00
48563;BME280;34981;49.104;11.396;2023-04-07T06:25:48;95563.06;;;6.17;100.00
48563;BME280;34981;49.104;11.396;2023-04-07T06:28:18;95561.16;;;6.39;100.00
48563;BME280;34981;49.104;11.396;2023-04-07T06:30:47;95563.84;;;6.12;100.00
48563;BME280;34981;49.104;11.396;2023-04-07T06:33:15;95558.41;;;7.30;100.00
48563;BME280;34981;49.104;11.396;2023-04-07T06:35:42;95559.06;;;7.52;100.00
48563;BME280;34981;49.104;11.396;2023-04-07T06:38:09;95559.22;;;7.30;100.00
48563;BME280;34981;49.104;11.396;2023-04-07T06:40:38;95547.88;;;8.43;100.00
48563;BME280;34981;49.104;11.396;2023-04-07T06:43:05;95554.78;;;8.29;100.00
48563;BME280;34981;49.104;11.396;2023-04-07T06:45:40;95557.31;;;7.78;100.00
48563;BME280;34981;49.104;11.396;2023-04-07T06:48:07;95563.41;;;7.68;100.00
48563;BME280;34981;49.104;11.396;2023-04-07T06:50:36;95557.56;;;7.71;100.00
48563;BME280;34981;49.104;11.396;2023-04-07T06:53:06;95559.84;;;8.10;100.00
48563;BME280;34981;49.104;11.396;2023-04-07T06:55:33;95550.31;;;8.85;100.00
48563;BME280;34981;49.104;11.396;2023-04-07T06:58:01;95562.09;;;9.29;100.00
48563;BME280;34981;49.104;11.396;2023-04-07T07:00:28;95555.94;;;8.98;100.00
48563;BME280;34981;49.104;11.396;2023-04-07T07:02:59;95560.63;;;9.72;100.00
48563;BME280;34981;49.104;11.396;2023-04-07T07:05:26;95564.44;;;9.61;100.00
48563;BME280;34981;49.104;11.396;2023-04-07T07:07:53;95566.81;;;9.73;100.00
48563;BME280;34981;49.104;11.396;2023-04-07T07:10:20;95574.72;;;10.13;100.00
48563;BME280;34981;49.104;11.396;2023-04-07T07:12:50;95580.53;;;10.41;100.00
48563;BME280;34981;49.104;11.396;2023-04-07T07:15:17;95582.47;;;9.41;100.00
48563;BME280;34981;49.104;11.396;2023-04-07T07:17:44;95584.47;;;10.59;100.00
48563;BME280;34981;49.104;11.396;2023-04-07T07:20:11;95598.75;;;10.49;100.00
48563;BME280;34981;49.104;11.396;2023-04-07T07:22:39;95601.16;;;9.86;100.00
48563;BME280;34981;49.104;11.396;2023-04-07T07:25:07;95594.78;;;9.36;100.00
48563;BME280;34981;49.104;11.396;2023-04-07T07:27:34;95604.94;;;9.70;100.00
48563;BME280;34981;49.104;11.396;2023-04-07T07:30:01;95606.25;;;9.83;100.00
48563;BME280;34981;49.104;11.396;2023-04-07T07:32:28;95612.88;;;10.05;100.00
48563;BME280;34981;49.104;11.396;2023-04-07T07:34:55;95614.81;;;10.00;100.00
48563;BME280;34981;49.104;11.396;2023-04-07T07:37:23;95602.75;;;9.82;100.00
48563;BME280;34981;49.104;11.396;2023-04-07T07:39:50;95613.13;;;10.19;100.00
48563;BME280;34981;49.104;11.396;2023-04-07T07:42:19;95606.56;;;10.45;100.00
48563;BME280;34981;49.104;11.396;2023-04-07T07:44:50;95612.28;;;10.24;100.00
48563;BME280;34981;49.104;11.396;2023-04-07T07:47:17;95615.81;;;10.19;100.00
48563;BME280;34981;49.104;11.396;2023-04-07T07:49:44;95607.00;;;9.98;100.00
48563;BME280;34981;49.104;11.396;2023-04-07T07:52:11;95600.53;;;10.04;100.00
48563;BME280;34981;49.104;11.396;2023-04-07T07:54:40;95601.69;;;9.73;100.00
48563;BME280;34981;49.104;11.396;2023-04-07T07:57:07;95602.28;;;9.55;100.00
48563;BME280;34981;49.104;11.396;2023-04-07T07:59:34;95595.69;;;10.11;100.00
48563;BME280;34981;49.104;11.396;2023-04-07T08:02:01;95599.97;;;10.18;100.00
48563;BME280;34981;49.104;11.396;2023-04-07T08:04:28;95611.22;;;10.25;100.00
48563;BME280;34981;49.104;11.396;2023-04-07T08:06:55;95609.94;;;10.66;100.00
48563;BME280;34981;49.104;11.396;2023-04-07T08:09:23;95608.97;;;10.47;100.00
48563;BME280;34981;49.104;11.396;2023-04-07T08:11:50;95612.22;;;10.39;100.00
48563;BME280;34981;49.104;11.396;2023-04-07T08:14:17;95613.41;;;10.18;100.00
48563;BME280;34981;49.104;11.396;2023-04-07T08:16:44;95609.09;;;10.22;100.00
48563;BME280;34981;49.104;11.396;2023-04-07T08:19:12;95613.31;;;10.43;100.00
48563;BME280;34981;49.104;11.396;2023-04-07T08:21:39;95614.72;;;10.74;100.00
48563;BME280;34981;49.104;11.396;2023-04-07T08:24:07;95619.50;;;10.87;100.00
48563;BME280;34981;49.104;11.396;2023-04-07T08:26:34;95620.75;;;11.00;100.00
48563;BME280;34981;49.104;11.396;2023-04-07T08:29:01;95624.38;;;10.80;100.00
48563;BME280;34981;49.104;11.396;2023-04-07T08:31:28;95628.81;;;11.00;100.00
48563;BME280;34981;49.104;11.396;2023-04-07T08:33:56;95623.81;;;10.83;100.00
48563;BME280;34981;49.104;11.396;2023-04-07T08:36:26;95621.44;;;11.11;100.00
48563;BME280;34981;49.104;11.396;2023-04-07T08:38:54;95620.22;;;10.98;100.00
48563;BME280;34981;49.104;11.396;2023-04-07T08:41:29;95616.84;;;10.77;100.00
48563;BME280;34981;49.104;11.396;2023-04-07T08:43:59;95623.91;;;11.07;100.00
48563;BME280;34981;49.104;11.396;2023-04-07T08:46:27;95626.72;;;10.92;100.00
48563;BME280;34981;49.104;11.396;2023-04-07T08:48:55;95628.47;;;10.73;100.00
48563;BME280;34981;49.104;11.396;2023-04-07T08:51:26;95634.72;;;9.79;100.00
48563;BME280;34981;49.104;11.396;2023-04-07T08:53:57;95631.19;;;9.88;100.00
48563;BME280;34981;49.104;11.396;2023-04-07T08:56:26;95631.56;;;9.46;100.00
48563;BME280;34981;49.104;11.396;2023-04-07T08:58:54;95639.72;;;10.10;100.00
48563;BME280;34981;49.104;11.396;2023-04-07T09:01:21;95640.50;;;10.26;100.00
48563;BME280;34981;49.104;11.396;2023-04-07T09:03:48;95642.03;;;9.17;100.00
48563;BME280;34981;49.104;11.396;2023-04-07T09:06:17;95637.44;;;9.53;100.00
48563;BME280;34981;49.104;11.396;2023-04-07T09:08:44;95629.16;;;9.40;100.00
48563;BME280;34981;49.104;11.396;2023-04-07T09:11:11;95625.59;;;9.64;100.00
48563;BME280;34981;49.104;11.396;2023-04-07T09:13:38;95630.88;;;10.05;100.00
48563;BME280;34981;49.104;11.396;2023-04-07T09:16:05;95635.22;;;9.91;100.00
48563;BME280;34981;49.104;11.396;2023-04-07T09:18:33;95641.63;;;10.05;100.00
48563;BME280;34981;49.104;11.396;2023-04-07T09:21:01;95643.97;;;10.32;100.00
48563;BME280;34981;49.104;11.396;2023-04-07T09:26:00;95641.63;;;10.69;100.00
48563;BME280;34981;49.104;11.396;2023-04-07T09:28:37;95635.47;;;9.99;100.00
48563;BME280;34981;49.104;11.396;2023-04-07T09:31:05;95633.44;;;10.89;100.00
48563;BME280;34981;49.104;11.396;2023-04-07T09:33:32;95644.25;;;10.84;100.00
48563;BME280;34981;49.104;11.396;2023-04-07T09:35:59;95634.34;;;10.75;100.00
48563;BME280;34981;49.104;11.396;2023-04-07T09:41:07;95642.78;;;10.53;100.00
48563;BME280;34981;49.104;11.396;2023-04-07T09:43:38;95647.47;;;10.37;100.00
48563;BME280;34981;49.104;11.396;2023-04-07T09:46:13;95650.72;;;10.29;100.00
48563;BME280;34981;49.104;11.396;2023-04-07T09:48:41;95639.84;;;10.54;100.00
48563;BME280;34981;49.104;11.396;2023-04-07T09:51:13;95647.19;;;10.34;100.00
48563;BME280;34981;49.104;11.396;2023-04-07T09:53:41;95642.81;;;10.48;100.00
48563;BME280;34981;49.104;11.396;2023-04-07T09:56:09;95640.84;;;10.69;100.00
48563;BME280;34981;49.104;11.396;2023-04-07T09:58:37;95643.69;;;10.87;100.00
48563;BME280;34981;49.104;11.396;2023-04-07T10:01:05;95648.31;;;10.77;100.00
48563;BME280;34981;49.104;11.396;2023-04-07T10:03:34;95645.19;;;11.04;100.00
48563;BME280;34981;49.104;11.396;2023-04-07T10:06:02;95651.63;;;11.08;100.00
48563;BME280;34981;49.104;11.396;2023-04-07T10:08:30;95644.69;;;10.97;100.00
48563;BME280;34981;49.104;11.396;2023-04-07T10:10:58;95644.31;;;11.13;100.00
48563;BME280;34981;49.104;11.396;2023-04-07T10:13:28;95643.66;;;10.92;100.00
48563;BME280;34981;49.104;11.396;2023-04-07T10:15:55;95650.13;;;11.30;100.00
48563;BME280;34981;49.104;11.396;2023-04-07T10:18:25;95650.41;;;11.58;100.00
48563;BME280;34981;49.104;11.396;2023-04-07T10:20:56;95647.25;;;11.17;100.00
48563;BME280;34981;49.104;11.396;2023-04-07T10:26:02;95639.91;;;11.56;100.00
48563;BME280;34981;49.104;11.396;2023-04-07T10:28:31;95641.31;;;11.54;100.00
48563;BME280;34981;49.104;11.396;2023-04-07T10:30:59;95641.34;;;11.15;100.00
48563;BME280;34981;49.104;11.396;2023-04-07T10:33:47;95638.72;;;11.05;100.00
48563;BME280;34981;49.104;11.396;2023-04-07T10:36:16;95637.16;;;10.99;100.00
48563;BME280;34981;49.104;11.396;2023-04-07T10:41:30;95647.28;;;11.12;100.00
48563;BME280;34981;49.104;11.396;2023-04-07T10:43:57;95646.94;;;10.84;100.00
48563;BME280;34981;49.104;11.396;2023-04-07T10:46:24;95650.69;;;10.83;100.00
48563;BME280;34981;49.104;11.396;2023-04-07T10:49:07;95639.78;;;11.04;100.00
48563;BME280;34981;49.104;11.396;2023-04-07T10:51:37;95641.97;;;10.52;100.00
48563;BME280;34981;49.104;11.396;2023-04-07T10:54:14;95634.56;;;10.83;100.00
48563;BME280;34981;49.104;11.396;2023-04-07T10:59:28;95640.97;;;10.43;100.00
48563;BME280;34981;49.104;11.396;2023-04-07T11:04:39;95638.13;;;10.14;100.00
48563;BME280;34981;49.104;11.396;2023-04-07T11:07:06;95640.09;;;10.53;100.00
48563;BME280;34981;49.104;11.396;2023-04-07T11:09:34;95634.53;;;10.88;100.00
48563;BME280;34981;49.104;11.396;2023-04-07T11:12:01;95640.78;;;10.79;100.00
48563;BME280;34981;49.104;11.396;2023-04-07T11:14:28;95634.19;;;11.00;100.00
48563;BME280;34981;49.104;11.396;2023-04-07T11:16:56;95640.09;;;10.53;100.00
48563;BME280;34981;49.104;11.396;2023-04-07T11:19:23;95631.03;;;10.44;100.00
48563;BME280;34981;49.104;11.396;2023-04-07T11:21:50;95627.06;;;10.75;100.00
48563;BME280;34981;49.104;11.396;2023-04-07T11:24:55;95622.19;;;10.82;100.00
48563;BME280;34981;49.104;11.396;2023-04-07T11:27:22;95620.16;;;10.64;100.00
48563;BME280;34981;49.104;11.396;2023-04-07T11:29:50;95623.41;;;10.66;100.00
48563;BME280;34981;49.104;11.396;2023-04-07T11:32:21;95632.41;;;10.31;100.00
48563;BME280;34981;49.104;11.396;2023-04-07T11:34:51;95629.44;;;10.82;100.00
48563;BME280;34981;49.104;11.396;2023-04-07T11:39:52;95634.09;;;10.71;100.00
48563;BME280;34981;49.104;11.396;2023-04-07T11:42:38;95635.03;;;10.96;100.00
48563;BME280;34981;49.104;11.396;2023-04-07T11:45:15;95630.91;;;10.64;100.00
48563;BME280;34981;49.104;11.396;2023-04-07T11:47:43;95631.59;;;10.85;100.00
48563;BME280;34981;49.104;11.396;2023-04-07T11:50:10;95631.28;;;10.91;100.00
48563;BME280;34981;49.104;11.396;2023-04-07T11:52:43;95627.19;;;10.99;100.00
48563;BME280;34981;49.104;11.396;2023-04-07T11:55:20;95630.53;;;11.25;100.00
48563;BME280;34981;49.104;11.396;2023-04-07T11:57:50;95630.66;;;10.61;100.00
48563;BME280;34981;49.104;11.396;2023-04-07T12:00:20;95632.78;;;10.69;100.00
48563;BME280;34981;49.104;11.396;2023-04-07T12:02:47;95635.63;;;10.87;100.00
48563;BME280;34981;49.104;11.396;2023-04-07T12:05:14;95624.38;;;10.75;100.00
48563;BME280;34981;49.104;11.396;2023-04-07T12:07:51;95631.72;;;11.09;100.00
48563;BME280;34981;49.104;11.396;2023-04-07T12:10:20;95631.09;;;10.78;100.00
48563;BME280;34981;49.104;11.396;2023-04-07T12:12:47;95629.13;;;10.93;100.00
48563;BME280;34981;49.104;11.396;2023-04-07T12:15:14;95631.88;;;10.83;100.00
48563;BME280;34981;49.104;11.396;2023-04-07T12:17:45;95635.69;;;10.77;100.00
48563;BME280;34981;49.104;11.396;2023-04-07T12:20:14;95633.69;;;10.49;100.00
48563;BME280;34981;49.104;11.396;2023-04-07T12:22:41;95628.69;;;10.76;100.00
48563;BME280;34981;49.104;11.396;2023-04-07T12:25:08;95632.03;;;11.02;100.00
48563;BME280;34981;49.104;11.396;2023-04-07T12:27:35;95636.34;;;10.98;100.00
48563;BME280;34981;49.104;11.396;2023-04-07T12:30:10;95634.28;;;10.85;100.00
48563;BME280;34981;49.104;11.396;2023-04-07T12:32:37;95635.59;;;10.92;100.00
48563;BME280;34981;49.104;11.396;2023-04-07T12:35:04;95643.34;;;10.99;100.00
48563;BME280;34981;49.104;11.396;2023-04-07T12:37:32;95640.88;;;11.08;100.00
48563;BME280;34981;49.104;11.396;2023-04-07T12:39:59;95637.78;;;10.85;100.00
48563;BME280;34981;49.104;11.396;2023-04-07T12:42:26;95634.34;;;11.14;100.00
48563;BME280;34981;49.104;11.396;2023-04-07T12:44:53;95639.53;;;10.66;100.00
48563;BME280;34981;49.104;11.396;2023-04-07T12:47:21;95637.56;;;10.77;100.00
48563;BME280;34981;49.104;11.396;2023-04-07T12:49:48;95633.38;;;11.00;100.00
48563;BME280;34981;49.104;11.396;2023-04-07T12:52:16;95634.94;;;11.06;100.00
48563;BME280;34981;49.104;11.396;2023-04-07T12:54:43;95624.72;;;11.08;100.00
48563;BME280;34981;49.104;11.396;2023-04-07T12:57:11;95629.50;;;10.77;100.00
48563;BME280;34981;49.104;11.396;2023-04-07T12:59:38;95639.31;;;10.52;100.00
48563;BME280;34981;49.104;11.396;2023-04-07T13:02:05;95629.31;;;10.63;100.00
48563;BME280;34981;49.104;11.396;2023-04-07T13:04:33;95621.81;;;10.55;100.00
48563;BME280;34981;49.104;11.396;2023-04-07T13:07:01;95637.88;;;10.70;100.00
48563;BME280;34981;49.104;11.396;2023-04-07T13:09:29;95628.78;;;10.66;100.00
48563;BME280;34981;49.104;11.396;2023-04-07T13:11:56;95621.28;;;11.02;100.00
48563;BME280;34981;49.104;11.396;2023-04-07T13:14:23;95618.38;;;10.93;100.00
48563;BME280;34981;49.104;11.396;2023-04-07T13:16:51;95626.97;;;10.96;100.00
48563;BME280;34981;49.104;11.396;2023-04-07T13:19:18;95624.91;;;10.77;100.00
48563;BME280;34981;49.104;11.396;2023-04-07T13:21:45;95624.69;;;10.74;100.00